sensor_id;sensor_type;location;lat;lon;timestamp;P1;durP1;ratioP1;P2;durP2;ratioP2
44658;SDS011;30378;50.186;8.644;2022-11-25T00:01:20;15.52;;;4.63;;
44658;SDS011;30378;50.186;8.644;2022-11-25T00:03:49;19.23;;;5.22;;
44658;SDS011;30378;50.186;8.644;2022-11-25T00:06:19;12.52;;;4.18;;
44658;SDS011;30378;50.186;8.644;2022-11-25T00:08:54;11.52;;;4.10;;
44658;SDS011;30378;50.186;8.644;2022-11-25T00:11:23;18.70;;;4.30;;
44658;SDS011;30378;50.186;8.644;2022-11-25T00:13:51;17.02;;;4.57;;
44658;SDS011;30378;50.186;8.644;2022-11-25T00:16:19;15.02;;;4.57;;
44658;SDS011;30378;50.186;8.644;2022-11-25T00:18:48;14.55;;;5.32;;
44658;SDS011;30378;50.186;8.644;2022-11-25T00:21:18;13.80;;;4.72;;
44658;SDS011;30378;50.186;8.644;2022-11-25T00:23:50;12.80;;;4.72;;
44658;SDS011;30378;50.186;8.644;2022-11-25T00:26:20;18.73;;;5.72;;
44658;SDS011;30378;50.186;8.644;2022-11-25T00:28:48;11.63;;;4.70;;
44658;SDS011;30378;50.186;8.644;2022-11-25T00:31:18;10.48;;;4.28;;
44658;SDS011;30378;50.186;8.644;2022-11-25T00:33:47;14.38;;;4.40;;
44658;SDS011;30378;50.186;8.644;2022-11-25T00:38:43;11.52;;;3.92;;
44658;SDS011;30378;50.186;8.644;2022-11-25T00:43:56;16.17;;;4.97;;
44658;SDS011;30378;50.186;8.644;2022-11-25T00:46:43;10.65;;;4.18;;
44658;SDS011;30378;50.186;8.644;2022-11-25T00:49:09;13.15;;;4.75;;
44658;SDS011;30378;50.186;8.644;2022-11-25T00:51:37;12.95;;;4.70;;
44658;SDS011;30378;50.186;8.644;2022-11-25T00:54:05;11.50;;;4.68;;
44658;SDS011;30378;50.186;8.644;2022-11-25T00:56:32;18.00;;;5.50;;
44658;SDS011;30378;50.186;8.644;2022-11-25T00:58:59;13.10;;;4.47;;
44658;SDS011;30378;50.186;8.644;2022-11-25T01:01:26;16.10;;;4.65;;
44658;SDS011;30378;50.186;8.644;2022-11-25T01:03:53;9.70;;;4.03;;
44658;SDS011;30378;50.186;8.644;2022-11-25T01:06:20;15.45;;;4.93;;
44658;SDS011;30378;50.186;8.644;2022-11-25T01:08:48;15.45;;;5.20;;
44658;SDS011;30378;50.186;8.644;2022-11-25T01:11:17;16.48;;;5.10;;
44658;SDS011;30378;50.186;8.644;2022-11-25T01:13:45;15.00;;;5.22;;
44658;SDS011;30378;50.186;8.644;2022-11-25T01:16:14;15.95;;;5.25;;
44658;SDS011;30378;50.186;8.644;2022-11-25T01:18:45;13.60;;;4.25;;
44658;SDS011;30378;50.186;8.644;2022-11-25T01:21:13;17.55;;;5.82;;
44658;SDS011;30378;50.186;8.644;2022-11-25T01:23:52;12.93;;;4.78;;
44658;SDS011;30378;50.186;8.644;2022-11-25T01:26:20;15.57;;;4.80;;
44658;SDS011;30378;50.186;8.644;2022-11-25T01:28:54;12.52;;;5.18;;
44658;SDS011;30378;50.186;8.644;2022-11-25T01:31:24;16.08;;;5.72;;
44658;SDS011;30378;50.186;8.644;2022-11-25T01:33:54;18.98;;;5.68;;
44658;SDS011;30378;50.186;8.644;2022-11-25T01:36:22;14.48;;;5.90;;
44658;SDS011;30378;50.186;8.644;2022-11-25T01:38:51;15.50;;;5.78;;
44658;SDS011;30378;50.186;8.644;2022-11-25T01:41:20;16.38;;;6.80;;
44658;SDS011;30378;50.186;8.644;2022-11-25T01:44:04;20.98;;;7.53;;
44658;SDS011;30378;50.186;8.644;2022-11-25T01:49:28;19.77;;;6.40;;
44658;SDS011;30378;50.186;8.644;2022-11-25T01:52:05;15.75;;;5.88;;
44658;SDS011;30378;50.186;8.644;2022-11-25T01:54:37;15.05;;;6.45;;
44658;SDS011;30378;50.186;8.644;2022-11-25T01:57:11;18.98;;;6.63;;
44658;SDS011;30378;50.186;8.644;2022-11-25T01:59:44;21.75;;;7.25;;
44658;SDS011;30378;50.186;8.644;2022-11-25T02:02:14;18.92;;;7.13;;
44658;SDS011;30378;50.186;8.644;2022-11-25T02:04:44;18.80;;;7.13;;
44658;SDS011;30378;50.186;8.644;2022-11-25T02:07:54;24.60;;;7.60;;
44658;SDS011;30378;50.186;8.644;2022-11-25T02:10:12;24.58;;;7.60;;
44658;SDS011;30378;50.186;8.644;2022-11-25T02:15:11;20.48;;;6.43;;
44658;SDS011;30378;50.186;8.644;2022-11-25T02:17:39;28.10;;;7.38;;
44658;SDS011;30378;50.186;8.644;2022-11-25T02:25:37;21.60;;;7.68;;
44658;SDS011;30378;50.186;8.644;2022-11-25T02:28:12;23.20;;;8.18;;
44658;SDS011;30378;50.186;8.644;2022-11-25T02:30:41;24.73;;;8.40;;
44658;SDS011;30378;50.186;8.644;2022-11-25T02:33:09;21.80;;;8.88;;
44658;SDS011;30378;50.186;8.644;2022-11-25T02:40:39;17.27;;;6.85;;
44658;SDS011;30378;50.186;8.644;2022-11-25T02:43:11;19.38;;;7.03;;
44658;SDS011;30378;50.186;8.644;2022-11-25T02:48:26;21.88;;;8.13;;
44658;SDS011;30378;50.186;8.644;2022-11-25T02:51:13;23.77;;;6.80;;
44658;SDS011;30378;50.186;8.644;2022-11-25T02:53:43;21.00;;;6.57;;
44658;SDS011;30378;50.186;8.644;2022-11-25T02:56:11;19.08;;;7.72;;
44658;SDS011;30378;50.186;8.644;2022-11-25T02:58:40;30.55;;;7.07;;
44658;SDS011;30378;50.186;8.644;2022-11-25T03:01:08;21.10;;;6.93;;
44658;SDS011;30378;50.186;8.644;2022-11-25T03:03:36;18.10;;;6.57;;
44658;SDS011;30378;50.186;8.644;2022-11-25T03:06:05;16.02;;;5.32;;
44658;SDS011;30378;50.186;8.644;2022-11-25T03:08:33;12.15;;;5.03;;
44658;SDS011;30378;50.186;8.644;2022-11-25T03:11:04;18.30;;;5.47;;
44658;SDS011;30378;50.186;8.644;2022-11-25T03:13:32;15.63;;;5.70;;
44658;SDS011;30378;50.186;8.644;2022-11-25T03:15:59;13.20;;;5.35;;
44658;SDS011;30378;50.186;8.644;2022-11-25T03:18:26;14.48;;;5.55;;
44658;SDS011;30378;50.186;8.644;2022-11-25T03:20:54;13.50;;;4.88;;
44658;SDS011;30378;50.186;8.644;2022-11-25T03:23:23;15.55;;;5.18;;
44658;SDS011;30378;50.186;8.644;2022-11-25T03:25:52;21.42;;;6.55;;
44658;SDS011;30378;50.186;8.644;2022-11-25T03:28:20;17.33;;;6.25;;
44658;SDS011;30378;50.186;8.644;2022-11-25T03:30:47;13.75;;;5.32;;
44658;SDS011;30378;50.186;8.644;2022-11-25T03:33:14;16.75;;;5.78;;
44658;SDS011;30378;50.186;8.644;2022-11-25T03:35:42;19.15;;;6.28;;
44658;SDS011;30378;50.186;8.644;2022-11-25T03:38:08;15.25;;;6.15;;
44658;SDS011;30378;50.186;8.644;2022-11-25T03:40:36;19.98;;;6.47;;
44658;SDS011;30378;50.186;8.644;2022-11-25T03:45:30;16.50;;;5.75;;
44658;SDS011;30378;50.186;8.644;2022-11-25T03:48:00;14.88;;;6.15;;
44658;SDS011;30378;50.186;8.644;2022-11-25T03:50:27;18.25;;;6.10;;
44658;SDS011;30378;50.186;8.644;2022-11-25T03:52:54;17.13;;;6.57;;
44658;SDS011;30378;50.186;8.644;2022-11-25T03:55:21;24.55;;;7.35;;
44658;SDS011;30378;50.186;8.644;2022-11-25T03:57:49;22.95;;;7.10;;
44658;SDS011;30378;50.186;8.644;2022-11-25T04:00:16;22.00;;;7.43;;
44658;SDS011;30378;50.186;8.644;2022-11-25T04:02:48;18.42;;;7.45;;
44658;SDS011;30378;50.186;8.644;2022-11-25T04:05:17;23.58;;;7.30;;
44658;SDS011;30378;50.186;8.644;2022-11-25T04:07:44;18.83;;;7.25;;
44658;SDS011;30378;50.186;8.644;2022-11-25T04:10:11;18.38;;;6.82;;
44658;SDS011;30378;50.186;8.644;2022-11-25T04:12:41;25.75;;;7.53;;
44658;SDS011;30378;50.186;8.644;2022-11-25T04:15:18;19.20;;;6.95;;
44658;SDS011;30378;50.186;8.644;2022-11-25T04:17:50;19.50;;;7.30;;
44658;SDS011;30378;50.186;8.644;2022-11-25T04:20:17;22.35;;;6.72;;
44658;SDS011;30378;50.186;8.644;2022-11-25T04:25:19;18.23;;;6.30;;
44658;SDS011;30378;50.186;8.644;2022-11-25T04:27:46;18.90;;;6.68;;
44658;SDS011;30378;50.186;8.644;2022-11-25T04:30:16;21.40;;;6.00;;
44658;SDS011;30378;50.186;8.644;2022-11-25T04:32:43;28.45;;;6.95;;
44658;SDS011;30378;50.186;8.644;2022-11-25T04:35:12;20.08;;;6.90;;
44658;SDS011;30378;50.186;8.644;2022-11-25T04:37:44;17.25;;;7.03;;
44658;SDS011;30378;50.186;8.644;2022-11-25T04:40:12;21.40;;;7.10;;
44658;SDS011;30378;50.186;8.644;2022-11-25T04:42:43;23.75;;;8.75;;
44658;SDS011;30378;50.186;8.644;2022-11-25T04:45:12;23.83;;;7.95;;
44658;SDS011;30378;50.186;8.644;2022-11-25T04:47:50;25.35;;;7.70;;
44658;SDS011;30378;50.186;8.644;2022-11-25T04:53:00;22.05;;;7.43;;
44658;SDS011;30378;50.186;8.644;2022-11-25T04:55:27;21.23;;;8.45;;
44658;SDS011;30378;50.186;8.644;2022-11-25T05:00:22;21.13;;;6.63;;
44658;SDS011;30378;50.186;8.644;2022-11-25T05:02:49;19.35;;;7.65;;
44658;SDS011;30378;50.186;8.644;2022-11-25T05:05:19;19.80;;;6.97;;
44658;SDS011;30378;50.186;8.644;2022-11-25T05:07:46;20.58;;;7.40;;
44658;SDS011;30378;50.186;8.644;2022-11-25T05:10:14;23.60;;;7.68;;
44658;SDS011;30378;50.186;8.644;2022-11-25T05:12:45;27.38;;;7.38;;
44658;SDS011;30378;50.186;8.644;2022-11-25T05:15:15;21.17;;;7.68;;
44658;SDS011;30378;50.186;8.644;2022-11-25T05:17:45;21.55;;;8.15;;
44658;SDS011;30378;50.186;8.644;2022-11-25T05:20:14;20.80;;;7.43;;
44658;SDS011;30378;50.186;8.644;2022-11-25T05:22:41;21.35;;;8.13;;
44658;SDS011;30378;50.186;8.644;2022-11-25T05:25:14;22.75;;;7.40;;
44658;SDS011;30378;50.186;8.644;2022-11-25T05:27:56;26.98;;;7.43;;
44658;SDS011;30378;50.186;8.644;2022-11-25T05:30:23;27.35;;;8.50;;
44658;SDS011;30378;50.186;8.644;2022-11-25T05:32:50;21.42;;;6.90;;
44658;SDS011;30378;50.186;8.644;2022-11-25T05:35:18;23.73;;;7.43;;
44658;SDS011;30378;50.186;8.644;2022-11-25T05:37:47;19.20;;;7.05;;
44658;SDS011;30378;50.186;8.644;2022-11-25T05:40:14;21.98;;;7.85;;
44658;SDS011;30378;50.186;8.644;2022-11-25T05:42:54;19.35;;;7.75;;
44658;SDS011;30378;50.186;8.644;2022-11-25T05:45:21;28.25;;;7.32;;
44658;SDS011;30378;50.186;8.644;2022-11-25T05:47:48;22.35;;;7.13;;
44658;SDS011;30378;50.186;8.644;2022-11-25T05:50:19;25.40;;;7.63;;
44658;SDS011;30378;50.186;8.644;2022-11-25T05:53:02;16.50;;;6.47;;
44658;SDS011;30378;50.186;8.644;2022-11-25T05:55:29;20.80;;;7.07;;
44658;SDS011;30378;50.186;8.644;2022-11-25T05:57:58;20.15;;;6.70;;
44658;SDS011;30378;50.186;8.644;2022-11-25T06:00:26;21.75;;;6.35;;
44658;SDS011;30378;50.186;8.644;2022-11-25T06:02:59;16.60;;;6.70;;
44658;SDS011;30378;50.186;8.644;2022-11-25T06:05:27;22.13;;;7.85;;
44658;SDS011;30378;50.186;8.644;2022-11-25T06:07:54;19.75;;;7.45;;
44658;SDS011;30378;50.186;8.644;2022-11-25T06:10:21;18.15;;;6.40;;
44658;SDS011;30378;50.186;8.644;2022-11-25T06:12:50;18.63;;;6.15;;
44658;SDS011;30378;50.186;8.644;2022-11-25T06:15:19;15.68;;;6.28;;
44658;SDS011;30378;50.186;8.644;2022-11-25T06:17:47;21.42;;;7.75;;
44658;SDS011;30378;50.186;8.644;2022-11-25T06:20:21;18.50;;;7.70;;
44658;SDS011;30378;50.186;8.644;2022-11-25T06:22:49;24.30;;;7.47;;
44658;SDS011;30378;50.186;8.644;2022-11-25T06:25:22;18.10;;;6.95;;
44658;SDS011;30378;50.186;8.644;2022-11-25T06:27:50;23.50;;;7.35;;
44658;SDS011;30378;50.186;8.644;2022-11-25T06:30:36;20.25;;;7.20;;
44658;SDS011;30378;50.186;8.644;2022-11-25T06:33:26;26.30;;;7.03;;
44658;SDS011;30378;50.186;8.644;2022-11-25T06:35:57;26.17;;;8.07;;
44658;SDS011;30378;50.186;8.644;2022-11-25T06:38:24;18.63;;;6.47;;
44658;SDS011;30378;50.186;8.644;2022-11-25T06:40:51;14.65;;;6.28;;
44658;SDS011;30378;50.186;8.644;2022-11-25T06:43:19;17.23;;;6.38;;
44658;SDS011;30378;50.186;8.644;2022-11-25T06:45:46;18.85;;;6.53;;
44658;SDS011;30378;50.186;8.644;2022-11-25T06:48:13;15.82;;;6.05;;
44658;SDS011;30378;50.186;8.644;2022-11-25T06:50:40;21.88;;;7.65;;
44658;SDS011;30378;50.186;8.644;2022-11-25T06:53:07;23.40;;;7.43;;
44658;SDS011;30378;50.186;8.644;2022-11-25T06:55:34;29.27;;;8.50;;
44658;SDS011;30378;50.186;8.644;2022-11-25T06:58:01;14.18;;;7.07;;
44658;SDS011;30378;50.186;8.644;2022-11-25T07:00:45;24.60;;;7.60;;
44658;SDS011;30378;50.186;8.644;2022-11-25T07:03:12;20.48;;;7.40;;
44658;SDS011;30378;50.186;8.644;2022-11-25T07:05:39;24.73;;;8.23;;
44658;SDS011;30378;50.186;8.644;2022-11-25T07:08:06;27.00;;;8.88;;
44658;SDS011;30378;50.186;8.644;2022-11-25T07:10:33;26.13;;;8.85;;
44658;SDS011;30378;50.186;8.644;2022-11-25T07:13:00;25.52;;;9.43;;
44658;SDS011;30378;50.186;8.644;2022-11-25T07:15:27;25.45;;;8.88;;
44658;SDS011;30378;50.186;8.644;2022-11-25T07:17:54;32.92;;;9.65;;
44658;SDS011;30378;50.186;8.644;2022-11-25T07:20:21;30.73;;;10.02;;
44658;SDS011;30378;50.186;8.644;2022-11-25T07:22:48;37.42;;;10.35;;
44658;SDS011;30378;50.186;8.644;2022-11-25T07:25:14;31.98;;;10.25;;
44658;SDS011;30378;50.186;8.644;2022-11-25T07:27:42;32.05;;;9.50;;
44658;SDS011;30378;50.186;8.644;2022-11-25T07:30:09;32.00;;;10.50;;
44658;SDS011;30378;50.186;8.644;2022-11-25T07:32:56;33.25;;;9.95;;
44658;SDS011;30378;50.186;8.644;2022-11-25T07:35:23;27.90;;;9.70;;
44658;SDS011;30378;50.186;8.644;2022-11-25T07:37:50;31.13;;;9.90;;
44658;SDS011;30378;50.186;8.644;2022-11-25T07:40:18;30.55;;;9.45;;
44658;SDS011;30378;50.186;8.644;2022-11-25T07:42:45;28.85;;;8.77;;
44658;SDS011;30378;50.186;8.644;2022-11-25T07:45:13;31.60;;;9.63;;
44658;SDS011;30378;50.186;8.644;2022-11-25T07:47:43;31.38;;;9.35;;
44658;SDS011;30378;50.186;8.644;2022-11-25T07:50:10;23.48;;;9.20;;
44658;SDS011;30378;50.186;8.644;2022-11-25T07:52:37;22.90;;;8.45;;
44658;SDS011;30378;50.186;8.644;2022-11-25T07:55:05;23.90;;;7.95;;
44658;SDS011;30378;50.186;8.644;2022-11-25T07:57:33;21.63;;;8.25;;
44658;SDS011;30378;50.186;8.644;2022-11-25T08:00:00;21.60;;;7.70;;
44658;SDS011;30378;50.186;8.644;2022-11-25T08:02:37;28.38;;;7.88;;
44658;SDS011;30378;50.186;8.644;2022-11-25T08:05:04;18.40;;;6.78;;
44658;SDS011;30378;50.186;8.644;2022-11-25T08:07:32;18.15;;;6.55;;
44658;SDS011;30378;50.186;8.644;2022-11-25T08:10:02;22.35;;;7.40;;
44658;SDS011;30378;50.186;8.644;2022-11-25T08:12:31;17.75;;;6.60;;
44658;SDS011;30378;50.186;8.644;2022-11-25T08:14:58;16.88;;;6.18;;
44658;SDS011;30378;50.186;8.644;2022-11-25T08:17:25;19.40;;;7.65;;
44658;SDS011;30378;50.186;8.644;2022-11-25T08:19:52;18.10;;;7.63;;
44658;SDS011;30378;50.186;8.644;2022-11-25T08:22:19;15.23;;;6.10;;
44658;SDS011;30378;50.186;8.644;2022-11-25T08:24:46;20.95;;;6.13;;
44658;SDS011;30378;50.186;8.644;2022-11-25T08:27:13;20.98;;;7.18;;
44658;SDS011;30378;50.186;8.644;2022-11-25T08:29:40;14.43;;;5.80;;
44658;SDS011;30378;50.186;8.644;2022-11-25T08:32:07;17.27;;;6.13;;
44658;SDS011;30378;50.186;8.644;2022-11-25T08:34:37;14.75;;;5.82;;
44658;SDS011;30378;50.186;8.644;2022-11-25T08:37:04;15.77;;;6.45;;
44658;SDS011;30378;50.186;8.644;2022-11-25T08:39:31;19.25;;;6.70;;
44658;SDS011;30378;50.186;8.644;2022-11-25T08:42:18;16.92;;;6.18;;
44658;SDS011;30378;50.186;8.644;2022-11-25T08:44:47;17.60;;;6.50;;
44658;SDS011;30378;50.186;8.644;2022-11-25T08:47:17;12.35;;;5.30;;
44658;SDS011;30378;50.186;8.644;2022-11-25T08:49:44;16.67;;;6.07;;
44658;SDS011;30378;50.186;8.644;2022-11-25T08:52:11;16.42;;;5.93;;
44658;SDS011;30378;50.186;8.644;2022-11-25T08:54:38;15.20;;;5.32;;
44658;SDS011;30378;50.186;8.644;2022-11-25T08:57:05;15.98;;;5.35;;
44658;SDS011;30378;50.186;8.644;2022-11-25T08:59:32;18.77;;;6.75;;
44658;SDS011;30378;50.186;8.644;2022-11-25T09:01:59;13.38;;;4.35;;
44658;SDS011;30378;50.186;8.644;2022-11-25T09:04:27;14.65;;;5.47;;
44658;SDS011;30378;50.186;8.644;2022-11-25T09:06:54;15.95;;;5.70;;
44658;SDS011;30378;50.186;8.644;2022-11-25T09:09:21;15.02;;;5.13;;
44658;SDS011;30378;50.186;8.644;2022-11-25T09:11:48;14.25;;;6.47;;
44658;SDS011;30378;50.186;8.644;2022-11-25T09:14:15;15.68;;;4.88;;
44658;SDS011;30378;50.186;8.644;2022-11-25T09:16:42;15.65;;;5.25;;
44658;SDS011;30378;50.186;8.644;2022-11-25T09:19:09;9.15;;;4.82;;
44658;SDS011;30378;50.186;8.644;2022-11-25T09:21:36;17.52;;;5.60;;
44658;SDS011;30378;50.186;8.644;2022-11-25T09:24:02;14.43;;;4.93;;
44658;SDS011;30378;50.186;8.644;2022-11-25T09:26:30;12.88;;;5.15;;
44658;SDS011;30378;50.186;8.644;2022-11-25T09:29:02;17.08;;;5.30;;
44658;SDS011;30378;50.186;8.644;2022-11-25T09:31:29;18.33;;;7.25;;
44658;SDS011;30378;50.186;8.644;2022-11-25T09:33:56;18.50;;;5.35;;
44658;SDS011;30378;50.186;8.644;2022-11-25T09:36:23;13.02;;;5.40;;
44658;SDS011;30378;50.186;8.644;2022-11-25T09:38:50;14.95;;;5.70;;
44658;SDS011;30378;50.186;8.644;2022-11-25T09:41:24;14.10;;;5.53;;
44658;SDS011;30378;50.186;8.644;2022-11-25T09:47:41;18.55;;;6.55;;
44658;SDS011;30378;50.186;8.644;2022-11-25T09:50:27;12.40;;;4.88;;
44658;SDS011;30378;50.186;8.644;2022-11-25T09:53:21;11.63;;;4.35;;
44658;SDS011;30378;50.186;8.644;2022-11-25T09:56:02;11.98;;;5.22;;
44658;SDS011;30378;50.186;8.644;2022-11-25T09:58:56;16.02;;;4.82;;
44658;SDS011;30378;50.186;8.644;2022-11-25T10:01:31;15.85;;;5.40;;
44658;SDS011;30378;50.186;8.644;2022-11-25T10:04:08;14.02;;;4.93;;
44658;SDS011;30378;50.186;8.644;2022-11-25T10:06:47;13.00;;;5.47;;
44658;SDS011;30378;50.186;8.644;2022-11-25T10:09:24;17.08;;;5.70;;
44658;SDS011;30378;50.186;8.644;2022-11-25T10:12:00;13.82;;;4.90;;
44658;SDS011;30378;50.186;8.644;2022-11-25T10:14:39;17.15;;;5.47;;
44658;SDS011;30378;50.186;8.644;2022-11-25T10:19:59;14.73;;;5.75;;
44658;SDS011;30378;50.186;8.644;2022-11-25T10:22:51;10.40;;;4.65;;
44658;SDS011;30378;50.186;8.644;2022-11-25T10:25:22;12.50;;;4.70;;
44658;SDS011;30378;50.186;8.644;2022-11-25T10:28:00;8.80;;;4.20;;
44658;SDS011;30378;50.186;8.644;2022-11-25T10:33:19;10.63;;;5.00;;
44658;SDS011;30378;50.186;8.644;2022-11-25T10:38:28;10.25;;;4.30;;
44658;SDS011;30378;50.186;8.644;2022-11-25T10:41:03;10.07;;;3.97;;
44658;SDS011;30378;50.186;8.644;2022-11-25T10:43:30;10.15;;;4.32;;
44658;SDS011;30378;50.186;8.644;2022-11-25T10:48:58;10.00;;;4.70;;
44658;SDS011;30378;50.186;8.644;2022-11-25T10:51:37;11.27;;;4.32;;
44658;SDS011;30378;50.186;8.644;2022-11-25T10:54:24;12.18;;;5.45;;
44658;SDS011;30378;50.186;8.644;2022-11-25T10:57:00;16.08;;;5.40;;
44658;SDS011;30378;50.186;8.644;2022-11-25T10:59:30;9.90;;;4.15;;
44658;SDS011;30378;50.186;8.644;2022-11-25T11:04:58;12.13;;;4.90;;
44658;SDS011;30378;50.186;8.644;2022-11-25T11:07:29;11.55;;;4.72;;
44658;SDS011;30378;50.186;8.644;2022-11-25T11:10:20;9.70;;;4.72;;
44658;SDS011;30378;50.186;8.644;2022-11-25T11:15:22;11.23;;;4.20;;
44658;SDS011;30378;50.186;8.644;2022-11-25T11:17:52;10.05;;;4.53;;
44658;SDS011;30378;50.186;8.644;2022-11-25T11:20:26;10.60;;;4.40;;
44658;SDS011;30378;50.186;8.644;2022-11-25T11:23:02;9.63;;;4.10;;
44658;SDS011;30378;50.186;8.644;2022-11-25T11:25:36;18.05;;;5.28;;
44658;SDS011;30378;50.186;8.644;2022-11-25T11:28:28;9.50;;;4.53;;
44658;SDS011;30378;50.186;8.644;2022-11-25T11:36:08;11.82;;;4.55;;
44658;SDS011;30378;50.186;8.644;2022-11-25T11:38:53;13.68;;;5.20;;
44658;SDS011;30378;50.186;8.644;2022-11-25T11:41:39;12.30;;;4.95;;
44658;SDS011;30378;50.186;8.644;2022-11-25T11:44:20;14.63;;;5.15;;
44658;SDS011;30378;50.186;8.644;2022-11-25T11:55:17;13.07;;;5.32;;
44658;SDS011;30378;50.186;8.644;2022-11-25T12:00:22;12.15;;;3.90;;
44658;SDS011;30378;50.186;8.644;2022-11-25T12:05:23;13.02;;;4.53;;
44658;SDS011;30378;50.186;8.644;2022-11-25T12:10:27;16.70;;;5.03;;
44658;SDS011;30378;50.186;8.644;2022-11-25T12:13:04;11.85;;;5.07;;
44658;SDS011;30378;50.186;8.644;2022-11-25T12:15:50;12.57;;;4.25;;
44658;SDS011;30378;50.186;8.644;2022-11-25T12:21:17;11.38;;;4.15;;
44658;SDS011;30378;50.186;8.644;2022-11-25T12:24:15;12.93;;;4.10;;
44658;SDS011;30378;50.186;8.644;2022-11-25T12:27:02;11.60;;;4.50;;
44658;SDS011;30378;50.186;8.644;2022-11-25T12:29:41;10.80;;;3.90;;
44658;SDS011;30378;50.186;8.644;2022-11-25T12:32:44;12.57;;;4.55;;
44658;SDS011;30378;50.186;8.644;2022-11-25T12:38:20;12.73;;;4.60;;
44658;SDS011;30378;50.186;8.644;2022-11-25T12:41:03;13.77;;;4.22;;
44658;SDS011;30378;50.186;8.644;2022-11-25T12:46:32;10.07;;;4.90;;
44658;SDS011;30378;50.186;8.644;2022-11-25T12:49:02;13.55;;;4.88;;
44658;SDS011;30378;50.186;8.644;2022-11-25T12:51:38;11.70;;;5.63;;
44658;SDS011;30378;50.186;8.644;2022-11-25T13:00:09;12.07;;;4.57;;
44658;SDS011;30378;50.186;8.644;2022-11-25T13:03:10;14.00;;;4.65;;
44658;SDS011;30378;50.186;8.644;2022-11-25T13:05:53;12.73;;;4.88;;
44658;SDS011;30378;50.186;8.644;2022-11-25T13:08:55;11.60;;;4.65;;
44658;SDS011;30378;50.186;8.644;2022-11-25T13:14:16;11.05;;;4.68;;
44658;SDS011;30378;50.186;8.644;2022-11-25T13:16:51;14.00;;;5.63;;
44658;SDS011;30378;50.186;8.644;2022-11-25T13:19:20;17.48;;;5.88;;
44658;SDS011;30378;50.186;8.644;2022-11-25T13:22:33;11.52;;;4.88;;
44658;SDS011;30378;50.186;8.644;2022-11-25T13:24:46;11.27;;;4.57;;
44658;SDS011;30378;50.186;8.644;2022-11-25T13:27:32;11.57;;;4.88;;
44658;SDS011;30378;50.186;8.644;2022-11-25T13:35:45;11.65;;;4.32;;
44658;SDS011;30378;50.186;8.644;2022-11-25T13:38:36;14.35;;;5.22;;
44658;SDS011;30378;50.186;8.644;2022-11-25T13:46:42;10.63;;;4.57;;
44658;SDS011;30378;50.186;8.644;2022-11-25T13:51:53;13.38;;;4.88;;
44658;SDS011;30378;50.186;8.644;2022-11-25T13:54:42;11.52;;;5.22;;
44658;SDS011;30378;50.186;8.644;2022-11-25T13:57:25;12.27;;;5.18;;
44658;SDS011;30378;50.186;8.644;2022-11-25T13:59:56;13.10;;;5.47;;
44658;SDS011;30378;50.186;8.644;2022-11-25T14:02:39;10.90;;;4.82;;
44658;SDS011;30378;50.186;8.644;2022-11-25T14:11:11;12.30;;;4.35;;
44658;SDS011;30378;50.186;8.644;2022-11-25T14:18:39;11.55;;;4.28;;
44658;SDS011;30378;50.186;8.644;2022-11-25T14:26:58;16.33;;;4.57;;
44658;SDS011;30378;50.186;8.644;2022-11-25T14:29:34;15.27;;;4.38;;
44658;SDS011;30378;50.186;8.644;2022-11-25T14:32:06;16.20;;;4.43;;
44658;SDS011;30378;50.186;8.644;2022-11-25T14:34:39;13.48;;;4.07;;
44658;SDS011;30378;50.186;8.644;2022-11-25T14:37:12;11.20;;;4.50;;
44658;SDS011;30378;50.186;8.644;2022-11-25T14:42:12;13.38;;;4.40;;
44658;SDS011;30378;50.186;8.644;2022-11-25T14:47:26;10.73;;;3.90;;
44658;SDS011;30378;50.186;8.644;2022-11-25T14:49:57;11.75;;;3.90;;
44658;SDS011;30378;50.186;8.644;2022-11-25T14:52:46;10.60;;;4.20;;
44658;SDS011;30378;50.186;8.644;2022-11-25T14:55:25;10.13;;;3.38;;
44658;SDS011;30378;50.186;8.644;2022-11-25T14:57:57;16.00;;;3.63;;
44658;SDS011;30378;50.186;8.644;2022-11-25T15:00:24;12.95;;;3.47;;
44658;SDS011;30378;50.186;8.644;2022-11-25T15:05:23;13.63;;;3.40;;
44658;SDS011;30378;50.186;8.644;2022-11-25T15:08:00;8.68;;;3.70;;
44658;SDS011;30378;50.186;8.644;2022-11-25T15:13:30;9.48;;;3.85;;
44658;SDS011;30378;50.186;8.644;2022-11-25T15:16:15;11.27;;;3.90;;
44658;SDS011;30378;50.186;8.644;2022-11-25T15:18:52;8.95;;;3.55;;
44658;SDS011;30378;50.186;8.644;2022-11-25T15:21:21;10.20;;;4.45;;
44658;SDS011;30378;50.186;8.644;2022-11-25T15:23:52;10.70;;;3.15;;
44658;SDS011;30378;50.186;8.644;2022-11-25T15:26:23;8.82;;;3.38;;
44658;SDS011;30378;50.186;8.644;2022-11-25T15:28:54;9.68;;;3.10;;
44658;SDS011;30378;50.186;8.644;2022-11-25T15:31:25;10.75;;;3.55;;
44658;SDS011;30378;50.186;8.644;2022-11-25T15:33:56;13.60;;;3.58;;
44658;SDS011;30378;50.186;8.644;2022-11-25T15:36:26;12.50;;;3.15;;
44658;SDS011;30378;50.186;8.644;2022-11-25T15:38:54;13.27;;;4.07;;
44658;SDS011;30378;50.186;8.644;2022-11-25T15:41:31;12.77;;;4.20;;
44658;SDS011;30378;50.186;8.644;2022-11-25T15:44:02;12.20;;;3.33;;
44658;SDS011;30378;50.186;8.644;2022-11-25T15:46:31;11.25;;;4.18;;
44658;SDS011;30378;50.186;8.644;2022-11-25T15:49:02;11.55;;;3.47;;
44658;SDS011;30378;50.186;8.644;2022-11-25T15:51:33;10.70;;;3.70;;
44658;SDS011;30378;50.186;8.644;2022-11-25T15:54:23;8.82;;;3.13;;
44658;SDS011;30378;50.186;8.644;2022-11-25T15:57:12;6.88;;;3.85;;
44658;SDS011;30378;50.186;8.644;2022-11-25T15:59:48;8.90;;;4.15;;
44658;SDS011;30378;50.186;8.644;2022-11-25T16:10:23;13.43;;;3.75;;
44658;SDS011;30378;50.186;8.644;2022-11-25T16:23:38;15.40;;;4.20;;
44658;SDS011;30378;50.186;8.644;2022-11-25T16:28:41;10.20;;;4.20;;
44658;SDS011;30378;50.186;8.644;2022-11-25T16:31:16;11.20;;;3.92;;
44658;SDS011;30378;50.186;8.644;2022-11-25T16:33:43;10.35;;;4.32;;
44658;SDS011;30378;50.186;8.644;2022-11-25T16:36:10;12.30;;;4.95;;
44658;SDS011;30378;50.186;8.644;2022-11-25T16:38:37;18.10;;;5.03;;
44658;SDS011;30378;50.186;8.644;2022-11-25T16:41:13;11.32;;;4.20;;
44658;SDS011;30378;50.186;8.644;2022-11-25T16:43:45;12.90;;;4.75;;
44658;SDS011;30378;50.186;8.644;2022-11-25T16:46:13;10.00;;;4.28;;
44658;SDS011;30378;50.186;8.644;2022-11-25T16:48:43;14.82;;;5.00;;
44658;SDS011;30378;50.186;8.644;2022-11-25T16:51:21;16.60;;;4.97;;
44658;SDS011;30378;50.186;8.644;2022-11-25T16:53:52;12.65;;;4.75;;
44658;SDS011;30378;50.186;8.644;2022-11-25T16:56:27;15.10;;;5.00;;
44658;SDS011;30378;50.186;8.644;2022-11-25T16:58:56;14.35;;;5.13;;
44658;SDS011;30378;50.186;8.644;2022-11-25T17:01:24;16.13;;;5.63;;
44658;SDS011;30378;50.186;8.644;2022-11-25T17:03:53;14.20;;;5.40;;
44658;SDS011;30378;50.186;8.644;2022-11-25T17:06:20;13.35;;;5.38;;
44658;SDS011;30378;50.186;8.644;2022-11-25T17:08:50;13.40;;;4.68;;
44658;SDS011;30378;50.186;8.644;2022-11-25T17:11:19;13.52;;;6.65;;
44658;SDS011;30378;50.186;8.644;2022-11-25T17:13:51;14.93;;;4.82;;
44658;SDS011;30378;50.186;8.644;2022-11-25T17:16:20;15.77;;;6.03;;
44658;SDS011;30378;50.186;8.644;2022-11-25T17:18:51;14.77;;;5.45;;
44658;SDS011;30378;50.186;8.644;2022-11-25T17:21:19;19.70;;;5.75;;
44658;SDS011;30378;50.186;8.644;2022-11-25T17:23:59;11.48;;;5.50;;
44658;SDS011;30378;50.186;8.644;2022-11-25T17:26:34;12.27;;;5.25;;
44658;SDS011;30378;50.186;8.644;2022-11-25T17:29:05;17.75;;;5.05;;
44658;SDS011;30378;50.186;8.644;2022-11-25T17:31:37;13.63;;;4.45;;
44658;SDS011;30378;50.186;8.644;2022-11-25T17:34:04;13.27;;;4.80;;
44658;SDS011;30378;50.186;8.644;2022-11-25T17:36:31;13.63;;;5.10;;
44658;SDS011;30378;50.186;8.644;2022-11-25T17:38:58;12.85;;;4.60;;